EZY40PJ LTFJ-EGPH
Flight info
| Callsign | EZY40PJ |
|---|---|
| Flight time | N/A |
| Altitude | 38000 |
| Route | VADEN1J/06L VADEN N618 BAKLO DCT XANEX DCT UTEKA DCT TONDO DCT GITAS DCT BEGLA DCT FMD DCT KOVEL DCT DITIS DCT LOMKI DCT VARIK DCT KATCE DCT RKN DCT BERGI L602 NALAX L46 ESHIN N110 ERKIT DCT AGPED |
| Aircraft | A20N/M-SDE2E3FGHIRWXY/LB1 |
Departure
| Time | 2026-04-29 13:41 |
|---|---|
| Airport | Istanbul Sabiha Gökçen International Airport (LTFJ) |
Arrival
| Time | N/A |
|---|---|
| Airport | Edinburgh Airport (EGPH) |
| Time | Latitude | Longitude | Altitude | Speed | Heading |
|---|---|---|---|---|---|
| 2026-04-29 13:04 | 40.90611 | 29.31572 | 324 ft | 0 kts | 333° |
| 2026-04-29 13:30 | 40.90594 | 29.31583 | 321 ft | 4 kts | 334° |
| 2026-04-29 13:30 | 40.90569 | 29.31598 | 322 ft | 4 kts | 333° |
| 2026-04-29 13:30 | 40.90547 | 29.31616 | 322 ft | 4 kts | 317° |
| 2026-04-29 13:30 | 40.90532 | 29.31642 | 321 ft | 4 kts | 279° |
| 2026-04-29 13:31 | 40.90532 | 29.31662 | 321 ft | 1 kts | 244° |
| 2026-04-29 13:35 | 40.90532 | 29.31661 | 321 ft | 0 kts | 244° |
| 2026-04-29 13:35 | 40.90525 | 29.31643 | 322 ft | 4 kts | 244° |
| 2026-04-29 13:36 | 40.90507 | 29.31594 | 324 ft | 8 kts | 244° |
| 2026-04-29 13:36 | 40.90478 | 29.31513 | 323 ft | 12 kts | 244° |
| 2026-04-29 13:36 | 40.90418 | 29.31441 | 321 ft | 14 kts | 177° |
| 2026-04-29 13:36 | 40.90322 | 29.31492 | 324 ft | 14 kts | 173° |
| 2026-04-29 13:37 | 40.90243 | 29.31407 | 322 ft | 18 kts | 244° |
| 2026-04-29 13:37 | 40.90183 | 29.31242 | 323 ft | 22 kts | 244° |
| 2026-04-29 13:37 | 40.90111 | 29.31043 | 324 ft | 26 kts | 245° |
| 2026-04-29 13:37 | 40.90034 | 29.30836 | 323 ft | 25 kts | 244° |
| 2026-04-29 13:38 | 40.89959 | 29.30634 | 323 ft | 25 kts | 244° |
| 2026-04-29 13:38 | 40.89884 | 29.30428 | 321 ft | 25 kts | 244° |
| 2026-04-29 13:38 | 40.89806 | 29.30216 | 322 ft | 26 kts | 244° |
| 2026-04-29 13:38 | 40.89725 | 29.29995 | 322 ft | 28 kts | 244° |
| 2026-04-29 13:39 | 40.89638 | 29.29760 | 322 ft | 29 kts | 244° |
| 2026-04-29 13:39 | 40.89548 | 29.29512 | 322 ft | 30 kts | 244° |
| 2026-04-29 13:39 | 40.89459 | 29.29284 | 324 ft | 22 kts | 224° |
| 2026-04-29 13:39 | 40.89371 | 29.29269 | 323 ft | 10 kts | 158° |
| 2026-04-29 13:40 | 40.89355 | 29.29279 | 321 ft | 3 kts | 154° |
| 2026-04-29 13:40 | 40.89312 | 29.29307 | 324 ft | 10 kts | 154° |
| 2026-04-29 13:40 | 40.89299 | 29.29404 | 322 ft | 16 kts | 64° |
| 2026-04-29 13:40 | 40.89361 | 29.29568 | 323 ft | 33 kts | 63° |
| 2026-04-29 13:41 | 40.89553 | 29.30089 | 322 ft | 92 kts | 65° |
| 2026-04-29 13:41 | 40.89915 | 29.31084 | 322 ft | 146 kts | 64° |
| 2026-04-29 13:41 | 40.90354 | 29.32300 | 733 ft | 148 kts | 62° |
| 2026-04-29 13:41 | 40.90822 | 29.33555 | 1163 ft | 156 kts | 64° |
| 2026-04-29 13:42 | 40.91309 | 29.34870 | 1642 ft | 169 kts | 64° |
| 2026-04-29 13:42 | 40.91866 | 29.36383 | 1901 ft | 195 kts | 64° |
| 2026-04-29 13:42 | 40.92482 | 29.38057 | 2269 ft | 213 kts | 64° |
| 2026-04-29 13:42 | 40.93171 | 29.39935 | 2560 ft | 237 kts | 64° |
| 2026-04-29 13:43 | 40.93894 | 29.41903 | 3351 ft | 239 kts | 64° |
| 2026-04-29 13:43 | 40.94634 | 29.43919 | 4070 ft | 248 kts | 64° |
| 2026-04-29 13:43 | 40.95403 | 29.46015 | 4768 ft | 257 kts | 63° |
| 2026-04-29 13:43 | 40.96187 | 29.48155 | 5579 ft | 261 kts | 62° |
| 2026-04-29 13:44 | 40.96983 | 29.50329 | 6398 ft | 265 kts | 62° |
| 2026-04-29 13:44 | 40.97798 | 29.52555 | 7115 ft | 272 kts | 62° |
| 2026-04-29 13:44 | 40.98673 | 29.54807 | 7792 ft | 277 kts | 53° |
| 2026-04-29 13:44 | 40.99935 | 29.56682 | 8473 ft | 279 kts | 34° |
| 2026-04-29 13:45 | 41.01663 | 29.57806 | 9156 ft | 279 kts | 9° |
| 2026-04-29 13:45 | 41.03574 | 29.57774 | 9887 ft | 276 kts | 341° |
| 2026-04-29 13:45 | 41.05351 | 29.56778 | 10437 ft | 284 kts | 330° |
| 2026-04-29 13:45 | 41.07146 | 29.55476 | 10715 ft | 303 kts | 328° |
| 2026-04-29 13:46 | 41.09038 | 29.54049 | 11014 ft | 322 kts | 328° |
| 2026-04-29 13:46 | 41.11018 | 29.52568 | 11548 ft | 331 kts | 328° |
| 2026-04-29 13:46 | 41.13043 | 29.51065 | 12222 ft | 336 kts | 328° |
| 2026-04-29 13:46 | 41.15096 | 29.49549 | 12920 ft | 340 kts | 328° |
| 2026-04-29 13:47 | 41.17173 | 29.48019 | 13625 ft | 344 kts | 328° |
| 2026-04-29 13:47 | 41.19283 | 29.46465 | 14283 ft | 348 kts | 328° |
| 2026-04-29 13:47 | 41.21402 | 29.44904 | 14976 ft | 350 kts | 328° |
| 2026-04-29 13:47 | 41.23544 | 29.43327 | 15671 ft | 352 kts | 328° |
| 2026-04-29 13:48 | 41.25686 | 29.41747 | 16399 ft | 353 kts | 327° |
| 2026-04-29 13:48 | 41.27841 | 29.40159 | 17118 ft | 355 kts | 327° |
| 2026-04-29 13:48 | 41.30008 | 29.38559 | 17791 ft | 358 kts | 327° |
| 2026-04-29 13:48 | 41.32188 | 29.36948 | 18435 ft | 360 kts | 327° |
| 2026-04-29 13:49 | 41.34389 | 29.35319 | 18988 ft | 363 kts | 327° |
| 2026-04-29 13:49 | 41.36608 | 29.33678 | 19534 ft | 366 kts | 327° |
| 2026-04-29 13:49 | 41.38841 | 29.32024 | 20082 ft | 368 kts | 327° |
| 2026-04-29 13:49 | 41.41089 | 29.30358 | 20631 ft | 371 kts | 327° |
| 2026-04-29 13:50 | 41.43325 | 29.28700 | 21168 ft | 373 kts | 327° |
| 2026-04-29 13:50 | 41.45603 | 29.27009 | 21704 ft | 376 kts | 327° |
| 2026-04-29 13:50 | 41.47895 | 29.25307 | 22268 ft | 378 kts | 327° |
| 2026-04-29 13:50 | 41.50204 | 29.23602 | 22879 ft | 379 kts | 327° |
| 2026-04-29 13:51 | 41.52462 | 29.21808 | 23440 ft | 377 kts | 320° |
| 2026-04-29 13:51 | 41.54321 | 29.19380 | 23894 ft | 373 kts | 302° |
| 2026-04-29 13:51 | 41.55369 | 29.16239 | 24291 ft | 373 kts | 282° |
| 2026-04-29 13:51 | 41.55618 | 29.12778 | 24711 ft | 376 kts | 273° |
| 2026-04-29 13:52 | 41.55702 | 29.09274 | 25133 ft | 378 kts | 274° |
| 2026-04-29 13:52 | 41.55883 | 29.05813 | 25539 ft | 379 kts | 276° |
| 2026-04-29 13:52 | 41.56163 | 29.02305 | 25943 ft | 381 kts | 278° |
| 2026-04-29 13:52 | 41.56506 | 28.98808 | 26329 ft | 383 kts | 279° |
| 2026-04-29 13:53 | 41.56889 | 28.95266 | 26695 ft | 385 kts | 279° |
| 2026-04-29 13:53 | 41.57295 | 28.91703 | 26990 ft | 389 kts | 279° |
| 2026-04-29 13:53 | 41.57713 | 28.88121 | 27317 ft | 391 kts | 279° |
| 2026-04-29 13:53 | 41.58137 | 28.84521 | 27713 ft | 393 kts | 279° |
| 2026-04-29 13:54 | 41.58564 | 28.80915 | 28092 ft | 394 kts | 280° |
| 2026-04-29 13:54 | 41.58994 | 28.77290 | 28457 ft | 396 kts | 280° |
| 2026-04-29 13:54 | 41.59426 | 28.73649 | 28801 ft | 398 kts | 280° |
| 2026-04-29 13:54 | 41.59859 | 28.69991 | 29151 ft | 400 kts | 280° |
| 2026-04-29 13:55 | 41.60293 | 28.66315 | 29487 ft | 401 kts | 280° |
| 2026-04-29 13:55 | 41.60726 | 28.62633 | 29898 ft | 401 kts | 280° |
| 2026-04-29 13:55 | 41.61157 | 28.58964 | 30373 ft | 399 kts | 280° |
| 2026-04-29 13:55 | 41.61585 | 28.55312 | 30773 ft | 397 kts | 280° |
| 2026-04-29 13:56 | 41.62010 | 28.51672 | 31154 ft | 395 kts | 280° |
| 2026-04-29 13:56 | 41.62432 | 28.48051 | 31530 ft | 394 kts | 280° |
| 2026-04-29 13:56 | 41.62851 | 28.44442 | 31881 ft | 392 kts | 280° |
| 2026-04-29 13:56 | 41.63267 | 28.40844 | 32225 ft | 391 kts | 280° |
| 2026-04-29 13:57 | 41.63682 | 28.37254 | 32567 ft | 390 kts | 280° |
| 2026-04-29 13:57 | 41.64094 | 28.33678 | 32900 ft | 389 kts | 280° |
| 2026-04-29 13:57 | 41.64503 | 28.30115 | 33227 ft | 387 kts | 280° |
| 2026-04-29 13:57 | 41.64905 | 28.26607 | 33567 ft | 386 kts | 280° |
| 2026-04-29 13:58 | 41.65314 | 28.23025 | 33896 ft | 384 kts | 280° |
| 2026-04-29 13:58 | 41.65716 | 28.19494 | 34171 ft | 383 kts | 280° |
| 2026-04-29 13:58 | 41.66110 | 28.16021 | 34390 ft | 383 kts | 280° |
| 2026-04-29 13:58 | 41.66510 | 28.12493 | 34585 ft | 383 kts | 280° |
| 2026-04-29 13:59 | 41.66909 | 28.08963 | 34785 ft | 384 kts | 280° |
| 2026-04-29 13:59 | 41.67439 | 28.05474 | 34971 ft | 383 kts | 286° |
| 2026-04-29 13:59 | 41.68322 | 28.02118 | 35149 ft | 383 kts | 294° |
| 2026-04-29 13:59 | 41.69581 | 27.98980 | 35329 ft | 384 kts | 300° |
| 2026-04-29 14:00 | 41.71013 | 27.95953 | 35522 ft | 384 kts | 301° |
| 2026-04-29 14:00 | 41.72467 | 27.92960 | 35696 ft | 384 kts | 301° |
| 2026-04-29 14:00 | 41.73928 | 27.89957 | 35881 ft | 384 kts | 301° |
| 2026-04-29 14:00 | 41.75382 | 27.86959 | 36043 ft | 384 kts | 301° |
| 2026-04-29 14:01 | 41.76832 | 27.83959 | 36210 ft | 384 kts | 301° |
| 2026-04-29 14:01 | 41.78285 | 27.80947 | 36345 ft | 385 kts | 301° |
| 2026-04-29 14:01 | 41.79739 | 27.77926 | 36502 ft | 385 kts | 301° |
| 2026-04-29 14:01 | 41.81187 | 27.74914 | 36653 ft | 385 kts | 301° |
| 2026-04-29 14:02 | 41.82636 | 27.71896 | 36825 ft | 385 kts | 301° |
| 2026-04-29 14:02 | 41.84067 | 27.68913 | 37018 ft | 384 kts | 301° |
| 2026-04-29 14:02 | 41.85512 | 27.65897 | 37162 ft | 384 kts | 301° |
| 2026-04-29 14:02 | 41.86954 | 27.62885 | 37317 ft | 384 kts | 301° |
| 2026-04-29 14:03 | 41.88398 | 27.59865 | 37436 ft | 384 kts | 301° |
| 2026-04-29 14:03 | 41.89837 | 27.56852 | 37583 ft | 384 kts | 301° |
| 2026-04-29 14:03 | 41.91278 | 27.53833 | 37719 ft | 383 kts | 301° |
| 2026-04-29 14:03 | 41.92717 | 27.50815 | 37827 ft | 383 kts | 301° |
| 2026-04-29 14:04 | 41.95596 | 27.44765 | 37993 ft | 385 kts | 301° |
| 2026-04-29 14:04 | 41.98487 | 27.38679 | 38116 ft | 388 kts | 301° |
| 2026-04-29 14:05 | 42.01394 | 27.32548 | 38106 ft | 388 kts | 301° |
| 2026-04-29 14:05 | 42.04293 | 27.26422 | 38109 ft | 388 kts | 301° |